Terminal Aerodrome Forecast
Issued by NWS

Home | Current Version | Previous Version | Text Only | Print | Product List | Glossary On
Versions: 1 2 3 4 5 6 7 8 9 10 11 12 13
000
FTUS46 KSTO 242337
TAFSMF
TAF
KSMF 242337Z 2500/2524 20012G18KT P6SM SCT030 OVC050
     FM250200 19010KT P6SM OVC100
     FM251100 33007KT P6SM SCT100
      TEMPO 2512/2515 OVC035=

USA.gov is the U.S. government's official web portal to all federal, state and local government web resources and services.